createdAt,value
2017-08-31T00:00:21.625Z,54
2017-08-31T00:00:49.772Z,54.49
2017-08-31T00:01:17.904Z,54.03
2017-08-31T00:01:46.012Z,54.71
2017-08-31T00:02:14.054Z,54.77
2017-08-31T00:02:41.992Z,54.71
2017-08-31T00:03:23.271Z,54.68
2017-08-31T00:03:51.386Z,55.29
2017-08-31T00:04:19.402Z,55.45
2017-08-31T00:04:47.512Z,55.35
2017-08-31T00:05:15.517Z,54.58
2017-08-31T00:05:43.520Z,54.61
2017-08-31T00:06:11.515Z,54.77
2017-08-31T00:06:39.513Z,54.87
2017-08-31T00:07:07.524Z,54.39
2017-08-31T00:07:35.433Z,54.77
2017-08-31T00:08:03.444Z,55.26
2017-08-31T00:08:31.461Z,55.16
2017-08-31T00:08:59.335Z,55.26
2017-08-31T00:09:27.354Z,54.77
2017-08-31T00:09:55.394Z,55.26
2017-08-31T00:10:23.526Z,55.45
2017-08-31T00:10:51.513Z,55.45
2017-08-31T00:11:19.532Z,55.45
2017-08-31T00:11:47.547Z,55.26
2017-08-31T00:12:15.678Z,55.35
2017-08-31T00:12:43.505Z,55.29
2017-08-31T00:13:11.514Z,55.26
2017-08-31T00:13:39.499Z,55.35
2017-08-31T00:14:07.436Z,55.07
2017-08-31T00:14:35.344Z,55.26
2017-08-31T00:15:03.470Z,55.26
2017-08-31T00:15:31.486Z,55.45
2017-08-31T00:15:59.317Z,56.13
2017-08-31T00:16:28.109Z,55.74
2017-08-31T00:16:56.136Z,56.13
2017-08-31T00:17:24.155Z,56.32
2017-08-31T00:17:52.181Z,56.32
2017-08-31T00:18:20.089Z,56.8
2017-08-31T00:18:48.116Z,56.22
2017-08-31T00:19:16.025Z,56.8
2017-08-31T00:19:43.949Z,56.71
2017-08-31T00:20:12.110Z,56.22
2017-08-31T00:20:40.228Z,56.22
2017-08-31T00:21:08.139Z,56.22
2017-08-31T00:21:36.333Z,56.32
2017-08-31T00:22:04.321Z,56.48
2017-08-31T00:22:32.423Z,56.9
2017-08-31T00:23:00.443Z,56.68
2017-08-31T00:23:28.465Z,57.45
2017-08-31T00:23:56.464Z,57.26
2017-08-31T00:24:24.564Z,57.16
2017-08-31T00:24:52.590Z,57.16
2017-08-31T00:25:20.575Z,57.16
2017-08-31T00:25:48.499Z,57.45
2017-08-31T00:26:16.412Z,57.06
2017-08-31T00:26:44.421Z,57.16
2017-08-31T00:27:12.433Z,56.96
2017-08-31T00:27:40.346Z,57.35
2017-08-31T00:28:08.360Z,57.16
2017-08-31T00:28:36.083Z,57.26
2017-08-31T00:29:04.218Z,57.93
2017-08-31T00:29:32.154Z,56.96
2017-08-31T00:30:00.064Z,56.96
2017-08-31T00:30:29.445Z,56.74
2017-08-31T00:31:41.161Z,58.32
2017-08-31T00:32:09.264Z,58.03
2017-08-31T00:32:37.826Z,57.9
2017-08-31T00:33:05.856Z,58.1
2017-08-31T00:33:33.918Z,58.29
2017-08-31T00:34:02.519Z,58.29
2017-08-31T00:34:45.209Z,58.29
2017-08-31T00:35:13.315Z,59.06
2017-08-31T00:35:41.408Z,59.16
2017-08-31T00:36:09.404Z,58.87
2017-08-31T00:36:37.940Z,58.58
2017-08-31T00:37:05.943Z,58.87
2017-08-31T00:37:34.061Z,58.39
2017-08-31T00:38:02.066Z,58.48
2017-08-31T00:38:30.584Z,58.19
2017-08-31T00:38:58.489Z,58.39
2017-08-31T00:39:26.614Z,59.16
2017-08-31T00:39:54.728Z,58.97
2017-08-31T00:40:22.714Z,59.06
2017-08-31T00:40:50.837Z,59.55
2017-08-31T00:41:18.852Z,58.97
2017-08-31T00:41:46.829Z,59.35
2017-08-31T00:42:14.984Z,59.25
2017-08-31T00:42:42.898Z,59.64
2017-08-31T00:43:10.998Z,60.03
2017-08-31T00:43:39.032Z,59.93
2017-08-31T00:44:07.077Z,60.13
2017-08-31T00:44:35.095Z,59.93
2017-08-31T00:45:03.179Z,60.13
2017-08-31T00:45:31.305Z,60.13
2017-08-31T00:45:59.334Z,60.28
2017-08-31T00:46:27.479Z,60.13
2017-08-31T00:46:55.561Z,59.93
2017-08-31T00:47:23.690Z,60.31
2017-08-31T00:47:51.688Z,60.8
2017-08-31T00:48:19.712Z,60.38
2017-08-31T00:48:47.741Z,60.48
2017-08-31T00:49:15.736Z,60.22
2017-08-31T00:49:43.653Z,60.99
2017-08-31T00:50:11.759Z,60.89
2017-08-31T00:50:39.803Z,60
2017-08-31T00:51:07.887Z,60.31
2017-08-31T00:51:35.974Z,59.71
2017-08-31T00:52:03.988Z,60.28
2017-08-31T00:52:31.918Z,59.55
2017-08-31T00:53:00.044Z,59.8
2017-08-31T00:53:28.065Z,60.68
2017-08-31T00:53:56.180Z,60.38
2017-08-31T00:54:24.003Z,60.28
2017-08-31T00:54:52.250Z,60.38
2017-08-31T00:55:20.252Z,60.68
2017-08-31T00:55:48.073Z,60.38
2017-08-31T00:56:16.134Z,60.68
2017-08-31T00:56:43.926Z,60.86
2017-08-31T00:57:12.032Z,61.83
2017-08-31T00:57:39.933Z,61.64
2017-08-31T00:58:07.874Z,61.83
2017-08-31T00:58:35.971Z,61.25
2017-08-31T00:59:03.881Z,60.86
2017-08-31T00:59:32.003Z,60.77
2017-08-31T00:59:59.916Z,60.58
2017-08-31T01:00:27.958Z,60.48
2017-08-31T01:00:56.082Z,60.48
2017-08-31T01:01:24.223Z,61.16
2017-08-31T01:01:52.224Z,61.64
2017-08-31T01:02:20.219Z,62.18
2017-08-31T01:02:48.122Z,62.41
2017-08-31T01:03:16.222Z,62.7
2017-08-31T01:03:44.313Z,62.89
2017-08-31T01:04:12.439Z,62.38
2017-08-31T01:04:40.341Z,62.38
2017-08-31T01:05:08.246Z,61.8
2017-08-31T01:05:36.155Z,61.8
2017-08-31T01:06:03.870Z,61.9
2017-08-31T01:06:32.018Z,62.48
2017-08-31T01:07:00.108Z,62.18
2017-08-31T01:07:28.197Z,62.38
2017-08-31T01:07:56.197Z,62.76
2017-08-31T01:08:24.121Z,61.99
2017-08-31T01:08:52.259Z,62.57
2017-08-31T01:09:20.380Z,62.38
2017-08-31T01:09:48.161Z,62.57
2017-08-31T01:10:16.266Z,63.41
2017-08-31T01:10:44.375Z,63.73
2017-08-31T01:11:12.409Z,63.63
2017-08-31T01:11:40.342Z,63.41
2017-08-31T01:12:08.422Z,63.82
2017-08-31T01:12:36.237Z,63.7
2017-08-31T01:13:04.373Z,63.98
2017-08-31T01:13:32.469Z,64.47
2017-08-31T01:14:00.474Z,64.66
2017-08-31T01:14:28.588Z,64.76
2017-08-31T01:14:56.394Z,64.95
2017-08-31T01:15:24.401Z,64.56
2017-08-31T01:15:52.536Z,63.98
2017-08-31T01:16:20.650Z,64.95
2017-08-31T01:16:48.971Z,64.86
2017-08-31T01:17:17.077Z,64.76
2017-08-31T01:17:45.088Z,63.89
2017-08-31T01:18:14.328Z,63.92
2017-08-31T01:18:42.349Z,63.54
2017-08-31T01:19:10.352Z,63.89
2017-08-31T01:19:34.956Z,63.7
2017-08-31T01:20:02.940Z,63.7
2017-08-31T01:20:30.764Z,63.63
2017-08-31T01:20:58.855Z,63.79
2017-08-31T01:21:27.671Z,63.6
2017-08-31T01:21:55.902Z,63.63
2017-08-31T01:22:24.020Z,63.6
2017-08-31T01:22:52.014Z,63.6
2017-08-31T01:23:20.029Z,63.79
2017-08-31T01:23:48.549Z,63.6
2017-08-31T01:24:16.452Z,64.08
2017-08-31T01:24:40.970Z,63.98
2017-08-31T01:25:09.102Z,63.6
2017-08-31T01:25:37.244Z,63.5
2017-08-31T01:26:05.221Z,63.7
2017-08-31T01:26:33.268Z,63.7
2017-08-31T01:27:01.279Z,63.6
2017-08-31T01:27:29.316Z,63.89
2017-08-31T01:27:57.344Z,63.89
2017-08-31T01:28:25.350Z,63.98
2017-08-31T01:28:53.376Z,64.76
2017-08-31T01:29:21.408Z,64.82
2017-08-31T01:29:49.415Z,64.73
2017-08-31T01:30:17.530Z,64.92
2017-08-31T01:30:45.505Z,65.59
2017-08-31T01:31:13.612Z,65.69
2017-08-31T01:31:41.727Z,66.17
2017-08-31T01:32:09.850Z,66.36
2017-08-31T01:32:37.657Z,66.27
2017-08-31T01:33:05.777Z,66.17
2017-08-31T01:33:33.883Z,66.17
2017-08-31T01:34:01.994Z,65.2
2017-08-31T01:34:30.023Z,65.3
2017-08-31T01:34:57.812Z,65.4
2017-08-31T01:35:25.891Z,65.78
2017-08-31T01:35:53.806Z,65.4
2017-08-31T01:36:21.819Z,65.2
2017-08-31T01:36:50.148Z,65.5
2017-08-31T01:37:18.249Z,66.36
2017-08-31T01:37:46.251Z,66.27
2017-08-31T01:38:14.258Z,65.88
2017-08-31T01:38:42.194Z,66.85
2017-08-31T01:39:10.193Z,66.65
2017-08-31T01:39:38.116Z,66.85
2017-08-31T01:40:06.225Z,66.75
2017-08-31T01:40:34.226Z,66.52
2017-08-31T01:41:02.018Z,66.52
2017-08-31T01:41:30.135Z,66.14
2017-08-31T01:41:58.255Z,66.24
2017-08-31T01:42:26.387Z,66.52
2017-08-31T01:42:54.293Z,66.81
2017-08-31T01:43:22.319Z,67.19
2017-08-31T01:43:50.335Z,67.52
2017-08-31T01:44:18.223Z,67.39
2017-08-31T01:44:46.312Z,68.16
2017-08-31T01:45:14.317Z,68.26
2017-08-31T01:45:42.463Z,68.26
2017-08-31T01:46:10.456Z,68.44
2017-08-31T01:46:38.539Z,68.06
2017-08-31T01:47:06.432Z,68.35
2017-08-31T01:47:34.530Z,67.49
2017-08-31T01:48:02.675Z,67.58
2017-08-31T01:48:30.687Z,67.58
2017-08-31T01:48:58.803Z,67.77
2017-08-31T01:49:26.798Z,67.87
2017-08-31T01:49:54.891Z,67.68
2017-08-31T01:50:23.001Z,68.16
2017-08-31T01:50:50.920Z,68.26
2017-08-31T01:51:18.843Z,67.87
2017-08-31T01:51:46.963Z,67.97
2017-08-31T01:52:15.165Z,68.06
2017-08-31T01:52:43.293Z,68.26
2017-08-31T01:53:11.311Z,68.26
2017-08-31T01:53:39.147Z,68.54
2017-08-31T01:54:07.160Z,68.54
2017-08-31T01:54:35.200Z,68.54
2017-08-31T01:55:03.229Z,68.26
2017-08-31T01:55:31.321Z,68.44
2017-08-31T01:55:59.242Z,69.12
2017-08-31T01:56:27.157Z,69.02
2017-08-31T01:56:55.189Z,69.12
2017-08-31T01:57:23.206Z,68.93
2017-08-31T01:57:51.201Z,68.93
2017-08-31T01:58:19.323Z,68.93
2017-08-31T01:58:47.339Z,68.64
2017-08-31T01:59:15.242Z,68.93
2017-08-31T01:59:43.362Z,68.64
2017-08-31T02:00:11.400Z,68.44
2017-08-31T02:00:39.231Z,68.26
2017-08-31T02:01:07.344Z,68.26
2017-08-31T02:01:35.257Z,68.26
2017-08-31T02:02:03.376Z,68.84
2017-08-31T02:02:31.290Z,67.87
2017-08-31T02:02:59.261Z,67.77
2017-08-31T02:03:27.163Z,67.68
2017-08-31T02:03:55.264Z,67.97
2017-08-31T02:04:23.279Z,67.68
2017-08-31T02:04:51.081Z,67.42
2017-08-31T02:05:19.087Z,67.71
2017-08-31T02:05:46.887Z,67.61
2017-08-31T02:06:14.985Z,67.52
2017-08-31T02:06:43.000Z,67.61
2017-08-31T02:07:11.208Z,67.68
2017-08-31T02:07:39.204Z,67.42
2017-08-31T02:08:07.317Z,67.33
2017-08-31T02:08:35.221Z,67.61
2017-08-31T02:09:03.326Z,67.71
2017-08-31T02:09:31.451Z,67.71
2017-08-31T02:09:59.483Z,67.61
2017-08-31T02:10:27.590Z,68.1
2017-08-31T02:10:55.604Z,68.29
2017-08-31T02:11:23.720Z,69.15
2017-08-31T02:11:51.718Z,69.06
2017-08-31T02:12:19.818Z,69.35
2017-08-31T02:12:47.935Z,69.73
2017-08-31T02:13:16.065Z,70.12
2017-08-31T02:13:44.081Z,70.12
2017-08-31T02:14:12.191Z,70.12
2017-08-31T02:14:40.303Z,70.02
2017-08-31T02:15:08.413Z,69.93
2017-08-31T02:15:36.410Z,69.99
2017-08-31T02:16:04.428Z,69.73
2017-08-31T02:16:32.451Z,69.35
2017-08-31T02:17:00.437Z,68.96
2017-08-31T02:17:28.362Z,69.64
2017-08-31T02:17:56.441Z,69.64
2017-08-31T02:18:24.563Z,69.25
2017-08-31T02:18:52.550Z,68.87
2017-08-31T02:19:20.651Z,68.96
2017-08-31T02:19:48.646Z,69.25
2017-08-31T02:20:16.772Z,69.06
2017-08-31T02:20:44.897Z,68.58
2017-08-31T02:21:13.003Z,68.87
2017-08-31T02:21:40.907Z,68.93
2017-08-31T02:22:09.137Z,68.96
2017-08-31T02:22:37.162Z,68.96
2017-08-31T02:23:05.252Z,69.51
2017-08-31T02:23:33.243Z,69.73
2017-08-31T02:24:01.366Z,69.02
2017-08-31T02:24:29.887Z,68.96
2017-08-31T02:24:57.689Z,68.68
2017-08-31T02:25:25.694Z,68.64
2017-08-31T02:25:53.791Z,68.64
2017-08-31T02:26:21.770Z,68.54
2017-08-31T02:26:49.880Z,68.54
2017-08-31T02:27:17.887Z,67.97
2017-08-31T02:27:45.921Z,68.26
2017-08-31T02:28:13.919Z,68.64
2017-08-31T02:28:41.974Z,68.06
2017-08-31T02:29:10.018Z,68.06
2017-08-31T02:29:38.147Z,67.87
2017-08-31T02:30:06.255Z,68.38
2017-08-31T02:30:34.042Z,67.87
2017-08-31T02:31:02.029Z,68.35
2017-08-31T02:31:30.052Z,68.06
2017-08-31T02:31:58.042Z,68.48
2017-08-31T02:32:26.156Z,67.71
2017-08-31T02:32:54.064Z,67.81
2017-08-31T02:33:22.195Z,68.19
2017-08-31T02:33:50.081Z,68.48
2017-08-31T02:34:18.057Z,67.97
2017-08-31T02:34:46.178Z,67.97
2017-08-31T02:35:14.274Z,68
2017-08-31T02:35:42.384Z,68.26
2017-08-31T02:36:10.396Z,68.06
2017-08-31T02:36:38.481Z,68.06
2017-08-31T02:37:06.584Z,68.35
2017-08-31T02:37:34.710Z,68.06
2017-08-31T02:38:02.677Z,68.26
2017-08-31T02:38:30.754Z,68.84
2017-08-31T02:38:58.776Z,69.22
2017-08-31T02:39:26.821Z,68.26
2017-08-31T02:39:54.809Z,68.74
2017-08-31T02:40:22.737Z,68.44
2017-08-31T02:40:50.815Z,68.26
2017-08-31T02:41:18.804Z,68.54
2017-08-31T02:41:46.730Z,69.6
2017-08-31T02:42:14.826Z,69.31
2017-08-31T02:42:42.837Z,69.99
2017-08-31T02:43:10.726Z,69.89
2017-08-31T02:43:38.842Z,69.7
2017-08-31T02:44:06.941Z,69.6
2017-08-31T02:44:35.088Z,70.09
2017-08-31T02:45:02.978Z,69.99
2017-08-31T02:45:30.964Z,69.95
2017-08-31T02:45:59.083Z,69.99
2017-08-31T02:46:27.214Z,70.09
2017-08-31T02:46:55.229Z,70.09
2017-08-31T02:47:23.181Z,69.95
2017-08-31T02:47:51.170Z,71.24
2017-08-31T02:48:19.085Z,71.04
2017-08-31T02:48:47.084Z,71.2
2017-08-31T02:49:15.185Z,71.49
2017-08-31T02:49:43.077Z,73.74
2017-08-31T02:50:11.190Z,74.29
2017-08-31T02:50:39.130Z,74.51
2017-08-31T02:51:07.126Z,74.03
2017-08-31T02:51:35.248Z,73.94
2017-08-31T02:52:03.753Z,73.46
2017-08-31T02:52:31.873Z,73.16
2017-08-31T02:52:59.987Z,73.74
2017-08-31T02:53:27.911Z,73.78
2017-08-31T02:53:55.911Z,74.41
2017-08-31T02:54:24.022Z,74.22
2017-08-31T02:54:52.098Z,75.19
2017-08-31T02:55:20.087Z,76.86
2017-08-31T02:55:47.900Z,77.34
2017-08-31T02:56:16.003Z,76.96
2017-08-31T02:56:44.099Z,76.76
2017-08-31T02:57:12.212Z,77.44
2017-08-31T02:57:40.310Z,78.02
2017-08-31T02:58:08.335Z,78.79
2017-08-31T02:58:36.441Z,78.98
2017-08-31T02:59:04.368Z,79.27
2017-08-31T02:59:32.486Z,78.98
2017-08-31T03:00:00.593Z,79.75
2017-08-31T03:00:28.514Z,79.79
2017-08-31T03:00:56.499Z,79.66
2017-08-31T03:01:24.526Z,79.98
2017-08-31T03:01:52.639Z,80.37
2017-08-31T03:02:20.673Z,80.43
2017-08-31T03:02:48.713Z,80.66
2017-08-31T03:03:16.636Z,80.85
2017-08-31T03:03:44.770Z,80.76
2017-08-31T03:04:12.883Z,81.1
2017-08-31T03:04:40.983Z,81.58
2017-08-31T03:05:08.974Z,82.83
2017-08-31T03:05:37.101Z,83.03
2017-08-31T03:06:05.120Z,83.99
2017-08-31T03:06:33.147Z,84.56
2017-08-31T03:07:01.240Z,84.86
2017-08-31T03:07:29.363Z,85.05
2017-08-31T03:07:57.462Z,85.24
2017-08-31T03:08:25.478Z,85.82
2017-08-31T03:08:53.593Z,87.36
2017-08-31T03:09:21.506Z,87.55
2017-08-31T03:09:49.404Z,88.42
2017-08-31T03:10:18.824Z,87.46
2017-08-31T03:10:46.707Z,88.23
2017-08-31T03:11:14.808Z,88.23
2017-08-31T03:11:42.709Z,88.61
2017-08-31T03:12:10.737Z,89.34
2017-08-31T03:12:38.630Z,89.92
2017-08-31T03:13:06.748Z,90.78
2017-08-31T03:13:34.773Z,90.11
2017-08-31T03:14:02.881Z,90.78
2017-08-31T03:14:30.980Z,91.36
2017-08-31T03:14:59.070Z,91.75
2017-08-31T03:15:27.150Z,91.46
2017-08-31T03:15:55.267Z,92.13
2017-08-31T03:16:23.370Z,92.42
2017-08-31T03:16:51.508Z,92.61
2017-08-31T03:17:19.338Z,92.61
2017-08-31T03:17:47.439Z,93.29
2017-08-31T03:18:15.571Z,93.09
2017-08-31T03:18:43.514Z,93.48
2017-08-31T03:19:11.617Z,93.87
2017-08-31T03:19:39.505Z,94.06
2017-08-31T03:20:07.623Z,93.96
2017-08-31T03:20:35.622Z,93.96
2017-08-31T03:21:03.542Z,94.92
2017-08-31T03:21:31.674Z,95.4
2017-08-31T03:21:59.491Z,94.87
2017-08-31T03:22:27.798Z,96.32
2017-08-31T03:22:55.689Z,96.51
2017-08-31T03:23:23.683Z,96.89
2017-08-31T03:23:51.576Z,96.51
2017-08-31T03:24:19.556Z,97.38
2017-08-31T03:24:47.649Z,97.28
2017-08-31T03:25:15.798Z,98.05
2017-08-31T03:25:43.683Z,97.76
2017-08-31T03:26:11.715Z,97.67
2017-08-31T03:26:39.813Z,98.05
2017-08-31T03:27:07.839Z,97.47
2017-08-31T03:27:36.016Z,97.57
2017-08-31T03:28:04.120Z,97.28
2017-08-31T03:28:32.254Z,97.86
2017-08-31T03:29:00.349Z,98.44
2017-08-31T03:29:28.356Z,98.34
2017-08-31T03:29:56.504Z,98.24
2017-08-31T03:30:24.338Z,98.54
2017-08-31T03:30:52.467Z,99.4
2017-08-31T03:31:20.600Z,99.4
2017-08-31T03:31:48.509Z,99.01
2017-08-31T03:32:16.498Z,99.59
2017-08-31T03:32:44.585Z,99.69
2017-08-31T03:33:12.701Z,99.49
2017-08-31T03:33:40.805Z,99.98
2017-08-31T03:34:08.814Z,99.69
2017-08-31T03:34:36.753Z,99.99
2017-08-31T03:35:04.761Z,99.64
2017-08-31T03:35:32.785Z,98.87
2017-08-31T03:36:00.881Z,98.77
2017-08-31T03:36:28.870Z,98.87
2017-08-31T03:36:56.773Z,98.29
2017-08-31T03:37:25.128Z,98.96
2017-08-31T03:37:53.139Z,99.4
2017-08-31T03:38:21.170Z,99.3
2017-08-31T03:38:49.296Z,99.49
2017-08-31T03:39:17.361Z,99.78
2017-08-31T03:39:45.382Z,99.4
2017-08-31T03:40:13.272Z,99.11
2017-08-31T03:40:41.320Z,99.3
2017-08-31T03:41:09.447Z,99.11
2017-08-31T03:41:37.539Z,99.11
2017-08-31T03:42:05.472Z,99.3
2017-08-31T03:42:33.568Z,99.11
2017-08-31T03:43:01.665Z,98.82
2017-08-31T03:43:29.655Z,99.3
2017-08-31T03:43:57.820Z,99.21
2017-08-31T03:44:25.846Z,99.3
2017-08-31T03:44:53.967Z,98.54
2017-08-31T03:45:21.981Z,97.76
2017-08-31T03:45:50.090Z,97.76
2017-08-31T03:46:17.996Z,97.28
2017-08-31T03:46:46.089Z,98.92
2017-08-31T03:47:14.189Z,99.59
2017-08-31T03:47:42.124Z,99.69
2017-08-31T03:48:10.136Z,99.4
2017-08-31T03:48:38.139Z,99.49
2017-08-31T03:49:06.035Z,99.78
2017-08-31T03:49:33.869Z,99.11
2017-08-31T03:50:01.876Z,99.88
2017-08-31T03:50:29.975Z,99.21
2017-08-31T03:50:57.986Z,99.4
2017-08-31T03:51:25.920Z,99.99
2017-08-31T03:51:54.014Z,99.99
2017-08-31T03:52:22.146Z,99.99
2017-08-31T03:52:50.272Z,99.99
2017-08-31T03:53:18.375Z,99.99
2017-08-31T03:53:46.408Z,99.99
2017-08-31T03:54:14.324Z,99.99
2017-08-31T03:54:42.323Z,99.99
2017-08-31T03:55:10.450Z,99.99
2017-08-31T03:55:38.537Z,99.99
2017-08-31T03:56:07.193Z,99.99
2017-08-31T03:56:35.137Z,99.99
2017-08-31T03:57:03.146Z,99.99
2017-08-31T03:57:31.283Z,99.99
2017-08-31T03:57:59.289Z,99.99
2017-08-31T03:58:27.394Z,99.99
2017-08-31T03:58:55.510Z,99.99
2017-08-31T03:59:23.501Z,99.99
2017-08-31T03:59:51.497Z,99.99
2017-08-31T04:00:19.600Z,99.99
2017-08-31T04:00:47.724Z,99.99
2017-08-31T04:01:15.723Z,99.99
2017-08-31T04:01:43.746Z,99.99
2017-08-31T04:02:11.735Z,99.99
2017-08-31T04:02:39.875Z,99.99
2017-08-31T04:03:07.873Z,99.99
2017-08-31T04:03:35.894Z,99.99
2017-08-31T04:04:03.790Z,99.99
2017-08-31T04:04:31.902Z,99.99
2017-08-31T04:05:00.016Z,99.99
2017-08-31T04:05:28.043Z,99.99
2017-08-31T04:05:55.958Z,99.99
2017-08-31T04:06:24.093Z,99.99
2017-08-31T04:06:52.116Z,99.99
2017-08-31T04:07:20.223Z,99.99
2017-08-31T04:07:48.452Z,99.99
2017-08-31T04:08:16.471Z,99.99
2017-08-31T04:08:44.486Z,99.99
2017-08-31T04:09:12.601Z,99.99
2017-08-31T04:09:40.635Z,99.99
2017-08-31T04:10:08.731Z,99.99
2017-08-31T04:10:36.855Z,99.99
2017-08-31T04:11:04.972Z,99.99
2017-08-31T04:11:33.056Z,99.99
2017-08-31T04:12:01.204Z,99.99
2017-08-31T04:12:29.214Z,99.99
2017-08-31T04:12:57.201Z,99.99
2017-08-31T04:13:25.330Z,99.99
2017-08-31T04:13:53.339Z,99.99
2017-08-31T04:14:21.361Z,99.99
2017-08-31T04:14:49.453Z,99.99
2017-08-31T04:15:17.555Z,99.99
2017-08-31T04:15:45.556Z,99.99
2017-08-31T04:16:13.443Z,99.99
2017-08-31T04:16:41.539Z,99.99
2017-08-31T04:17:09.605Z,99.99
2017-08-31T04:17:37.711Z,99.99
2017-08-31T04:18:05.867Z,99.99
2017-08-31T04:18:33.675Z,99.99
2017-08-31T04:19:01.807Z,99.99
2017-08-31T04:19:29.916Z,99.99
2017-08-31T04:19:57.835Z,99.99
2017-08-31T04:20:25.874Z,99.99
2017-08-31T04:20:53.683Z,99.99
2017-08-31T04:21:21.694Z,99.99
2017-08-31T04:21:49.505Z,99.99
2017-08-31T04:22:17.610Z,99.99
2017-08-31T04:22:46.507Z,99.99
2017-08-31T04:23:14.601Z,99.99
2017-08-31T04:23:42.716Z,99.99
2017-08-31T04:24:10.716Z,99.99
2017-08-31T04:24:38.720Z,99.99
2017-08-31T04:25:06.814Z,99.99
2017-08-31T04:25:34.854Z,99.99
2017-08-31T04:26:02.941Z,99.99
2017-08-31T04:26:30.928Z,99.99
2017-08-31T04:26:58.853Z,99.99
2017-08-31T04:27:26.751Z,99.99
2017-08-31T04:27:54.806Z,99.99
2017-08-31T04:28:22.811Z,99.99
2017-08-31T04:28:50.822Z,99.99
2017-08-31T04:29:18.931Z,99.99
2017-08-31T04:29:47.060Z,99.99
2017-08-31T04:30:15.130Z,99.99
2017-08-31T04:30:43.029Z,99.99
2017-08-31T04:31:11.130Z,99.99
2017-08-31T04:31:39.225Z,99.99
2017-08-31T04:32:07.341Z,99.99
2017-08-31T04:32:35.582Z,99.73
2017-08-31T04:33:03.574Z,99.99
2017-08-31T04:33:31.692Z,99.99
2017-08-31T04:33:59.796Z,99.99
2017-08-31T04:34:27.682Z,99.99
2017-08-31T04:34:55.697Z,99.99
2017-08-31T04:35:23.830Z,99.99
2017-08-31T04:35:51.753Z,99.99
2017-08-31T04:36:19.837Z,99.99
2017-08-31T04:36:47.744Z,99.99
2017-08-31T04:37:15.791Z,99.99
2017-08-31T04:37:44.190Z,99.99
2017-08-31T04:38:12.172Z,99.99
2017-08-31T04:38:40.280Z,99.99
2017-08-31T04:39:08.389Z,99.99
2017-08-31T04:39:36.507Z,99.99
2017-08-31T04:40:04.632Z,99.99
2017-08-31T04:40:32.741Z,99.99
2017-08-31T04:41:00.774Z,99.99
2017-08-31T04:41:28.882Z,99.99
2017-08-31T04:41:56.811Z,99.99
2017-08-31T04:42:24.822Z,99.99
2017-08-31T04:42:52.944Z,99.99
2017-08-31T04:43:20.956Z,99.99
2017-08-31T04:43:48.880Z,99.99
2017-08-31T04:44:16.787Z,99.99
2017-08-31T04:44:44.711Z,99.99
2017-08-31T04:45:12.833Z,99.99
2017-08-31T04:45:40.858Z,99.99
2017-08-31T04:46:08.982Z,99.99
2017-08-31T04:46:36.882Z,99.99
2017-08-31T04:47:04.986Z,99.99
2017-08-31T04:47:33.002Z,99.99
2017-08-31T04:48:00.930Z,99.99
2017-08-31T04:48:29.017Z,99.99
2017-08-31T04:48:57.105Z,99.99
2017-08-31T04:49:25.211Z,99.99
2017-08-31T04:49:53.009Z,99.99
2017-08-31T04:50:21.023Z,99.99
2017-08-31T04:50:49.047Z,99.99
2017-08-31T04:51:17.187Z,99.99
2017-08-31T04:51:45.174Z,99.99
2017-08-31T04:52:13.298Z,99.99
2017-08-31T04:52:41.397Z,99.99
2017-08-31T04:53:09.303Z,99.99
2017-08-31T04:53:37.958Z,99.99
2017-08-31T04:54:05.977Z,99.99
2017-08-31T04:54:33.974Z,99.99
2017-08-31T04:55:02.080Z,99.99
2017-08-31T04:55:30.197Z,99.99
2017-08-31T04:55:58.318Z,99.99
2017-08-31T04:56:26.335Z,99.99
2017-08-31T04:56:54.261Z,99.99
2017-08-31T04:57:22.178Z,99.99
2017-08-31T04:57:50.409Z,99.99
2017-08-31T04:58:18.517Z,99.99
2017-08-31T04:58:46.645Z,99.99
2017-08-31T04:59:14.761Z,99.99
2017-08-31T04:59:42.867Z,99.99
2017-08-31T05:00:10.977Z,99.99
2017-08-31T05:00:38.983Z,99.99
2017-08-31T05:01:07.000Z,99.99
2017-08-31T05:01:34.994Z,99.99
2017-08-31T05:02:03.023Z,99.99
2017-08-31T05:02:31.131Z,99.99
2017-08-31T05:02:59.325Z,99.99
2017-08-31T05:03:27.454Z,99.99
2017-08-31T05:03:55.239Z,99.99
2017-08-31T05:04:23.016Z,99.99
2017-08-31T05:04:51.141Z,99.99
2017-08-31T05:05:19.165Z,99.99
2017-08-31T05:05:47.262Z,99.99
2017-08-31T05:06:15.369Z,99.99
2017-08-31T05:06:43.505Z,99.99
2017-08-31T05:07:11.612Z,99.99
2017-08-31T05:07:39.602Z,99.99
2017-08-31T05:08:07.624Z,99.99
2017-08-31T05:08:35.524Z,99.99
2017-08-31T05:09:03.458Z,99.99
2017-08-31T05:09:31.275Z,99.99
2017-08-31T05:09:59.197Z,99.99
2017-08-31T05:10:27.120Z,99.99
2017-08-31T05:10:55.128Z,99.99
2017-08-31T05:11:23.053Z,99.99
2017-08-31T05:11:51.158Z,99.99
2017-08-31T05:12:19.172Z,99.99
2017-08-31T05:12:47.243Z,99.99
2017-08-31T05:13:15.259Z,99.99
2017-08-31T05:13:39.929Z,99.99
2017-08-31T05:14:08.041Z,99.99
2017-08-31T05:14:36.338Z,99.99
2017-08-31T05:15:04.767Z,99.99
2017-08-31T05:15:32.780Z,99.99
2017-08-31T05:16:00.876Z,99.99
2017-08-31T05:16:28.893Z,99.99
2017-08-31T05:16:56.907Z,99.99
2017-08-31T05:17:24.915Z,99.99
2017-08-31T05:17:53.020Z,99.99
2017-08-31T05:18:20.935Z,99.99
2017-08-31T05:18:48.925Z,99.99
2017-08-31T05:19:16.735Z,99.99
2017-08-31T05:19:44.848Z,99.99
2017-08-31T05:20:12.838Z,99.99
2017-08-31T05:20:40.949Z,99.99
2017-08-31T05:21:08.832Z,99.99
2017-08-31T05:21:36.972Z,99.99
2017-08-31T05:22:05.084Z,99.99
2017-08-31T05:22:33.085Z,99.99
2017-08-31T05:23:01.208Z,99.99
2017-08-31T05:23:29.122Z,99.99
2017-08-31T05:23:57.225Z,99.99
2017-08-31T05:24:25.326Z,99.99
2017-08-31T05:24:53.420Z,99.99
2017-08-31T05:25:21.437Z,99.99
2017-08-31T05:25:49.515Z,99.99
2017-08-31T05:26:17.524Z,99.99
2017-08-31T05:26:45.443Z,99.99
2017-08-31T05:27:13.268Z,99.99
2017-08-31T05:27:41.193Z,99.99
2017-08-31T05:28:09.332Z,99.99
2017-08-31T05:28:37.582Z,99.99
2017-08-31T05:29:05.640Z,99.99
2017-08-31T05:29:33.659Z,99.99
2017-08-31T05:30:01.856Z,99.99
2017-08-31T05:30:29.861Z,99.99
2017-08-31T05:30:57.857Z,99.99
2017-08-31T05:31:25.866Z,99.99
2017-08-31T05:31:53.785Z,99.99
2017-08-31T05:32:21.808Z,99.99
2017-08-31T05:32:49.935Z,99.99
2017-08-31T05:33:17.923Z,99.99
2017-08-31T05:33:45.988Z,99.99
2017-08-31T05:34:14.085Z,99.99
2017-08-31T05:34:42.115Z,99.99
2017-08-31T05:35:10.275Z,99.99
2017-08-31T05:35:38.493Z,99.99
2017-08-31T05:36:06.613Z,99.99
2017-08-31T05:36:34.512Z,99.99
2017-08-31T05:37:02.532Z,99.99
2017-08-31T05:37:30.644Z,99.99
2017-08-31T05:37:58.742Z,99.99
2017-08-31T05:38:26.781Z,99.99
2017-08-31T05:38:54.793Z,99.99
2017-08-31T05:39:22.858Z,99.99
2017-08-31T05:39:50.980Z,99.99
2017-08-31T05:40:18.980Z,99.99
2017-08-31T05:40:47.167Z,99.99
2017-08-31T05:41:15.257Z,99.99
2017-08-31T05:41:43.382Z,99.99
2017-08-31T05:42:11.506Z,99.99
2017-08-31T05:42:39.608Z,99.99
2017-08-31T05:43:07.729Z,99.99
2017-08-31T05:43:35.744Z,99.99
2017-08-31T05:44:03.753Z,99.99
2017-08-31T05:44:31.765Z,99.99
2017-08-31T05:44:59.781Z,99.99
2017-08-31T05:45:27.790Z,99.99
2017-08-31T05:45:55.910Z,99.99
2017-08-31T05:46:24.018Z,99.99
2017-08-31T05:46:52.127Z,99.99
2017-08-31T05:47:20.138Z,99.99
2017-08-31T05:47:48.242Z,99.99
2017-08-31T05:48:16.256Z,99.99
2017-08-31T05:48:44.377Z,99.99
2017-08-31T05:49:12.501Z,99.99
2017-08-31T05:49:40.506Z,99.99
2017-08-31T05:50:08.622Z,99.99
2017-08-31T05:50:36.734Z,99.99
2017-08-31T05:51:04.732Z,99.99
2017-08-31T05:51:32.763Z,99.99
2017-08-31T05:52:00.860Z,99.99
2017-08-31T05:52:28.757Z,99.99
2017-08-31T05:52:56.777Z,99.99
2017-08-31T05:53:24.676Z,99.99
2017-08-31T05:53:52.807Z,99.99
2017-08-31T05:54:20.909Z,99.99
2017-08-31T05:54:48.919Z,99.99
2017-08-31T05:55:17.039Z,99.99
2017-08-31T05:55:44.943Z,99.99
2017-08-31T05:56:13.037Z,99.99
2017-08-31T05:56:41.032Z,99.99
2017-08-31T05:57:09.044Z,99.99
2017-08-31T05:57:37.026Z,99.99
2017-08-31T05:58:05.212Z,99.99
2017-08-31T05:58:33.133Z,99.99
2017-08-31T05:59:01.144Z,99.99
2017-08-31T05:59:29.140Z,99.99
2017-08-31T05:59:57.128Z,99.99
2017-08-31T06:00:25.148Z,99.99
2017-08-31T06:00:53.057Z,99.99
2017-08-31T06:01:21.056Z,99.99
2017-08-31T06:01:49.153Z,99.99
2017-08-31T06:02:17.076Z,99.99
2017-08-31T06:02:45.174Z,99.99
2017-08-31T06:03:13.350Z,99.99